Terminal Aerodrome Forecast
Issued by NWS Albany, NY

Home | Current Version | Previous Version | Text Only | Print | Product List | Glossary On
Versions: 1 2 3 4 5 6 7 8 9 10 11 12 13 14
000
FTUS41 KALY 231100
TAFALB
TAF
KALB 231136Z 2312/2412 15005KT P6SM FEW080
     FM231300 19008KT 6SM HZ SCT050 SCT250
     FM231600 22010KT P6SM SCT050 SCT250
     FM231800 23010KT P6SM BKN050 BKN100
     FM232100 27008KT P6SM BKN050 BKN100 PROB30 2321/2402 3SM TSRA
      BR BKN015CB BKN035
     FM240200 31006KT P6SM BKN050 BKN100=

USA.gov is the U.S. government's official web portal to all federal, state and local government web resources and services.